sensor_id;sensor_type;location;lat;lon;timestamp;temperature;humidity
33741;DHT22;20065;48.380;10.892;2022-11-04T00:01:04;9.90;99.90
33741;DHT22;20065;48.380;10.892;2022-11-04T00:03:52;9.90;99.90
33741;DHT22;20065;48.380;10.892;2022-11-04T00:06:39;10.00;99.90
33741;DHT22;20065;48.380;10.892;2022-11-04T00:09:29;10.10;99.90
33741;DHT22;20065;48.380;10.892;2022-11-04T00:12:15;10.20;99.90
33741;DHT22;20065;48.380;10.892;2022-11-04T00:15:10;10.30;99.90
33741;DHT22;20065;48.380;10.892;2022-11-04T00:18:15;10.30;99.90
33741;DHT22;20065;48.380;10.892;2022-11-04T00:21:01;10.30;99.90
33741;DHT22;20065;48.380;10.892;2022-11-04T00:24:08;10.30;99.90
33741;DHT22;20065;48.380;10.892;2022-11-04T00:27:19;10.20;99.90
33741;DHT22;20065;48.380;10.892;2022-11-04T00:30:25;10.20;99.90
33741;DHT22;20065;48.380;10.892;2022-11-04T00:33:11;10.20;99.90
33741;DHT22;20065;48.380;10.892;2022-11-04T00:36:12;10.10;99.90
33741;DHT22;20065;48.380;10.892;2022-11-04T00:38:58;10.20;99.90
33741;DHT22;20065;48.380;10.892;2022-11-04T00:41:44;10.20;99.90
33741;DHT22;20065;48.380;10.892;2022-11-04T00:44:30;10.20;99.90
33741;DHT22;20065;48.380;10.892;2022-11-04T00:47:17;10.20;99.90
33741;DHT22;20065;48.380;10.892;2022-11-04T00:50:04;10.10;99.90
33741;DHT22;20065;48.380;10.892;2022-11-04T00:52:50;10.10;99.90
33741;DHT22;20065;48.380;10.892;2022-11-04T00:55:36;10.10;99.90
33741;DHT22;20065;48.380;10.892;2022-11-04T00:58:22;10.10;99.90
33741;DHT22;20065;48.380;10.892;2022-11-04T01:01:14;10.10;99.90
33741;DHT22;20065;48.380;10.892;2022-11-04T01:04:04;10.00;99.90
33741;DHT22;20065;48.380;10.892;2022-11-04T01:06:53;10.00;99.90
33741;DHT22;20065;48.380;10.892;2022-11-04T01:09:42;10.10;99.90
33741;DHT22;20065;48.380;10.892;2022-11-04T01:12:28;10.10;99.90
33741;DHT22;20065;48.380;10.892;2022-11-04T01:15:14;10.00;99.90
33741;DHT22;20065;48.380;10.892;2022-11-04T01:18:01;10.10;99.90
33741;DHT22;20065;48.380;10.892;2022-11-04T01:20:47;10.10;99.90
33741;DHT22;20065;48.380;10.892;2022-11-04T01:23:34;10.10;99.90
33741;DHT22;20065;48.380;10.892;2022-11-04T01:26:22;10.20;99.90
33741;DHT22;20065;48.380;10.892;2022-11-04T01:29:09;10.30;99.90
33741;DHT22;20065;48.380;10.892;2022-11-04T01:31:55;10.30;99.90
33741;DHT22;20065;48.380;10.892;2022-11-04T01:34:41;10.40;99.90
33741;DHT22;20065;48.380;10.892;2022-11-04T01:37:27;10.50;99.90
33741;DHT22;20065;48.380;10.892;2022-11-04T01:40:13;10.50;99.90
33741;DHT22;20065;48.380;10.892;2022-11-04T01:42:59;10.50;99.90
33741;DHT22;20065;48.380;10.892;2022-11-04T01:45:57;10.40;99.90
33741;DHT22;20065;48.380;10.892;2022-11-04T01:48:44;10.40;99.90
33741;DHT22;20065;48.380;10.892;2022-11-04T01:51:32;10.40;99.90
33741;DHT22;20065;48.380;10.892;2022-11-04T01:54:20;10.40;99.90
33741;DHT22;20065;48.380;10.892;2022-11-04T01:57:10;10.40;99.90
33741;DHT22;20065;48.380;10.892;2022-11-04T02:00:00;10.40;99.90
33741;DHT22;20065;48.380;10.892;2022-11-04T02:03:11;10.40;99.90
33741;DHT22;20065;48.380;10.892;2022-11-04T02:05:58;10.50;99.90
33741;DHT22;20065;48.380;10.892;2022-11-04T02:08:46;10.40;99.90
33741;DHT22;20065;48.380;10.892;2022-11-04T02:11:32;10.50;99.90
33741;DHT22;20065;48.380;10.892;2022-11-04T02:14:37;10.50;99.90
33741;DHT22;20065;48.380;10.892;2022-11-04T02:30:28;10.40;99.90
33741;DHT22;20065;48.380;10.892;2022-11-04T02:39:17;10.30;99.90
33741;DHT22;20065;48.380;10.892;2022-11-04T02:42:11;10.30;99.90
33741;DHT22;20065;48.380;10.892;2022-11-04T02:45:20;10.30;99.90
33741;DHT22;20065;48.380;10.892;2022-11-04T02:48:17;10.40;99.90
33741;DHT22;20065;48.380;10.892;2022-11-04T02:51:10;10.30;99.90
33741;DHT22;20065;48.380;10.892;2022-11-04T02:54:11;10.30;99.90
33741;DHT22;20065;48.380;10.892;2022-11-04T02:57:01;10.30;99.90
33741;DHT22;20065;48.380;10.892;2022-11-04T02:59:53;10.30;99.90
33741;DHT22;20065;48.380;10.892;2022-11-04T03:02:52;10.30;99.90
33741;DHT22;20065;48.380;10.892;2022-11-04T03:05:41;10.30;99.90
33741;DHT22;20065;48.380;10.892;2022-11-04T03:08:34;10.30;99.90
33741;DHT22;20065;48.380;10.892;2022-11-04T03:11:24;10.20;99.90
33741;DHT22;20065;48.380;10.892;2022-11-04T03:14:15;10.20;99.90
33741;DHT22;20065;48.380;10.892;2022-11-04T03:17:20;10.20;99.90
33741;DHT22;20065;48.380;10.892;2022-11-04T03:20:14;10.30;99.90
33741;DHT22;20065;48.380;10.892;2022-11-04T03:23:03;10.20;99.90
33741;DHT22;20065;48.380;10.892;2022-11-04T03:25:51;10.10;99.90
33741;DHT22;20065;48.380;10.892;2022-11-04T03:28:46;10.10;99.90
33741;DHT22;20065;48.380;10.892;2022-11-04T03:34:51;10.10;99.90
33741;DHT22;20065;48.380;10.892;2022-11-04T03:37:37;10.10;99.90
33741;DHT22;20065;48.380;10.892;2022-11-04T03:40:24;10.10;99.90
33741;DHT22;20065;48.380;10.892;2022-11-04T03:43:14;10.00;99.90
33741;DHT22;20065;48.380;10.892;2022-11-04T03:46:01;10.00;99.90
33741;DHT22;20065;48.380;10.892;2022-11-04T03:48:51;10.00;99.90
33741;DHT22;20065;48.380;10.892;2022-11-04T03:51:38;10.00;99.90
33741;DHT22;20065;48.380;10.892;2022-11-04T03:54:24;10.00;99.90
33741;DHT22;20065;48.380;10.892;2022-11-04T04:03:18;9.90;99.90
33741;DHT22;20065;48.380;10.892;2022-11-04T04:06:15;9.90;99.90
33741;DHT22;20065;48.380;10.892;2022-11-04T04:09:25;9.90;99.90
33741;DHT22;20065;48.380;10.892;2022-11-04T04:12:37;9.90;99.90
33741;DHT22;20065;48.380;10.892;2022-11-04T04:15:49;9.90;99.90
33741;DHT22;20065;48.380;10.892;2022-11-04T04:18:39;9.90;99.90
33741;DHT22;20065;48.380;10.892;2022-11-04T04:22:02;9.80;99.90
33741;DHT22;20065;48.380;10.892;2022-11-04T04:24:49;9.80;99.90
33741;DHT22;20065;48.380;10.892;2022-11-04T04:27:56;9.80;99.90
33741;DHT22;20065;48.380;10.892;2022-11-04T04:30:44;9.80;99.90
33741;DHT22;20065;48.380;10.892;2022-11-04T04:33:31;9.80;99.90
33741;DHT22;20065;48.380;10.892;2022-11-04T04:36:17;9.80;99.90
33741;DHT22;20065;48.380;10.892;2022-11-04T04:39:05;9.70;99.90
33741;DHT22;20065;48.380;10.892;2022-11-04T04:42:11;9.70;99.90
33741;DHT22;20065;48.380;10.892;2022-11-04T04:45:31;9.60;99.90
33741;DHT22;20065;48.380;10.892;2022-11-04T04:48:18;9.70;99.90
33741;DHT22;20065;48.380;10.892;2022-11-04T04:51:04;9.70;99.90
33741;DHT22;20065;48.380;10.892;2022-11-04T04:53:51;9.70;99.90
33741;DHT22;20065;48.380;10.892;2022-11-04T04:56:37;9.70;99.90
33741;DHT22;20065;48.380;10.892;2022-11-04T04:59:23;9.60;99.90
33741;DHT22;20065;48.380;10.892;2022-11-04T05:02:09;9.50;99.90
33741;DHT22;20065;48.380;10.892;2022-11-04T05:04:55;9.40;99.90
33741;DHT22;20065;48.380;10.892;2022-11-04T05:07:42;9.40;99.90
33741;DHT22;20065;48.380;10.892;2022-11-04T05:10:28;9.40;99.90
33741;DHT22;20065;48.380;10.892;2022-11-04T05:13:14;9.30;99.90
33741;DHT22;20065;48.380;10.892;2022-11-04T05:16:14;9.20;99.90
33741;DHT22;20065;48.380;10.892;2022-11-04T05:19:01;9.20;99.90
33741;DHT22;20065;48.380;10.892;2022-11-04T05:21:47;9.20;99.90
33741;DHT22;20065;48.380;10.892;2022-11-04T05:24:33;9.30;99.90
33741;DHT22;20065;48.380;10.892;2022-11-04T05:27:19;9.20;99.90
33741;DHT22;20065;48.380;10.892;2022-11-04T05:30:06;9.20;99.90
33741;DHT22;20065;48.380;10.892;2022-11-04T05:32:52;9.20;99.90
33741;DHT22;20065;48.380;10.892;2022-11-04T05:35:38;9.10;99.90
33741;DHT22;20065;48.380;10.892;2022-11-04T05:38:25;9.00;99.90
33741;DHT22;20065;48.380;10.892;2022-11-04T05:41:11;9.10;99.90
33741;DHT22;20065;48.380;10.892;2022-11-04T05:44:10;9.10;99.90
33741;DHT22;20065;48.380;10.892;2022-11-04T05:46:56;9.00;99.90
33741;DHT22;20065;48.380;10.892;2022-11-04T05:49:42;8.90;99.90
33741;DHT22;20065;48.380;10.892;2022-11-04T05:52:29;8.70;99.90
33741;DHT22;20065;48.380;10.892;2022-11-04T05:55:15;8.70;99.90
33741;DHT22;20065;48.380;10.892;2022-11-04T05:58:01;8.70;99.90
33741;DHT22;20065;48.380;10.892;2022-11-04T06:00:47;8.60;99.90
33741;DHT22;20065;48.380;10.892;2022-11-04T06:03:33;8.60;99.90
33741;DHT22;20065;48.380;10.892;2022-11-04T06:06:21;8.60;99.90
33741;DHT22;20065;48.380;10.892;2022-11-04T06:09:07;8.60;99.90
33741;DHT22;20065;48.380;10.892;2022-11-04T06:11:54;8.60;99.90
33741;DHT22;20065;48.380;10.892;2022-11-04T06:14:41;8.50;99.90
33741;DHT22;20065;48.380;10.892;2022-11-04T06:17:27;8.40;99.90
33741;DHT22;20065;48.380;10.892;2022-11-04T06:20:13;8.40;99.90
33741;DHT22;20065;48.380;10.892;2022-11-04T06:23:00;8.40;99.90
33741;DHT22;20065;48.380;10.892;2022-11-04T06:25:46;8.30;99.90
33741;DHT22;20065;48.380;10.892;2022-11-04T06:28:32;8.30;99.90
33741;DHT22;20065;48.380;10.892;2022-11-04T06:31:21;8.40;99.90
33741;DHT22;20065;48.380;10.892;2022-11-04T06:34:11;8.40;99.90
33741;DHT22;20065;48.380;10.892;2022-11-04T06:36:57;8.50;99.90
33741;DHT22;20065;48.380;10.892;2022-11-04T06:39:43;8.60;99.90
33741;DHT22;20065;48.380;10.892;2022-11-04T06:42:30;8.50;99.90
33741;DHT22;20065;48.380;10.892;2022-11-04T06:45:16;8.50;99.90
33741;DHT22;20065;48.380;10.892;2022-11-04T06:48:02;8.70;99.90
33741;DHT22;20065;48.380;10.892;2022-11-04T06:50:49;8.60;99.90
33741;DHT22;20065;48.380;10.892;2022-11-04T06:53:35;8.60;99.90
33741;DHT22;20065;48.380;10.892;2022-11-04T06:56:21;8.50;99.90
33741;DHT22;20065;48.380;10.892;2022-11-04T06:59:11;8.60;99.90
33741;DHT22;20065;48.380;10.892;2022-11-04T07:01:59;8.60;99.90
33741;DHT22;20065;48.380;10.892;2022-11-04T07:04:46;8.70;99.90
33741;DHT22;20065;48.380;10.892;2022-11-04T07:07:32;8.70;99.90
33741;DHT22;20065;48.380;10.892;2022-11-04T07:10:18;8.60;99.90
33741;DHT22;20065;48.380;10.892;2022-11-04T07:13:04;8.50;99.90
33741;DHT22;20065;48.380;10.892;2022-11-04T07:15:50;8.40;99.90
33741;DHT22;20065;48.380;10.892;2022-11-04T07:18:37;8.50;99.90
33741;DHT22;20065;48.380;10.892;2022-11-04T07:21:23;8.50;99.90
33741;DHT22;20065;48.380;10.892;2022-11-04T07:24:09;8.60;99.90
33741;DHT22;20065;48.380;10.892;2022-11-04T07:26:55;8.60;99.90
33741;DHT22;20065;48.380;10.892;2022-11-04T07:29:42;8.50;99.90
33741;DHT22;20065;48.380;10.892;2022-11-04T07:32:28;8.40;99.90
33741;DHT22;20065;48.380;10.892;2022-11-04T07:35:14;8.50;99.90
33741;DHT22;20065;48.380;10.892;2022-11-04T07:38:01;8.60;99.90
33741;DHT22;20065;48.380;10.892;2022-11-04T07:40:49;8.60;99.90
33741;DHT22;20065;48.380;10.892;2022-11-04T07:43:35;8.60;99.90
33741;DHT22;20065;48.380;10.892;2022-11-04T07:46:22;8.50;99.90
33741;DHT22;20065;48.380;10.892;2022-11-04T07:49:09;8.40;99.90
33741;DHT22;20065;48.380;10.892;2022-11-04T07:51:56;8.50;99.90
33741;DHT22;20065;48.380;10.892;2022-11-04T07:54:45;8.60;99.90
33741;DHT22;20065;48.380;10.892;2022-11-04T07:57:31;8.60;99.90
33741;DHT22;20065;48.380;10.892;2022-11-04T08:00:18;8.50;99.90
33741;DHT22;20065;48.380;10.892;2022-11-04T08:03:05;8.60;99.90
33741;DHT22;20065;48.380;10.892;2022-11-04T08:05:59;8.50;99.90
33741;DHT22;20065;48.380;10.892;2022-11-04T08:08:46;8.50;99.90
33741;DHT22;20065;48.380;10.892;2022-11-04T08:11:33;8.40;99.90
33741;DHT22;20065;48.380;10.892;2022-11-04T08:14:19;8.40;99.90
33741;DHT22;20065;48.380;10.892;2022-11-04T08:17:06;8.40;99.90
33741;DHT22;20065;48.380;10.892;2022-11-04T08:19:52;8.50;99.90
33741;DHT22;20065;48.380;10.892;2022-11-04T08:22:39;8.50;99.90
33741;DHT22;20065;48.380;10.892;2022-11-04T08:25:25;8.50;99.90
33741;DHT22;20065;48.380;10.892;2022-11-04T08:28:12;8.80;99.90
33741;DHT22;20065;48.380;10.892;2022-11-04T08:34:02;9.00;99.90
33741;DHT22;20065;48.380;10.892;2022-11-04T08:36:51;8.90;99.90
33741;DHT22;20065;48.380;10.892;2022-11-04T08:39:43;8.90;99.90
33741;DHT22;20065;48.380;10.892;2022-11-04T08:42:29;8.70;99.90
33741;DHT22;20065;48.380;10.892;2022-11-04T08:45:16;8.80;99.90
33741;DHT22;20065;48.380;10.892;2022-11-04T08:48:02;8.80;99.90
33741;DHT22;20065;48.380;10.892;2022-11-04T08:50:51;8.90;99.90
33741;DHT22;20065;48.380;10.892;2022-11-04T08:53:37;9.10;99.90
33741;DHT22;20065;48.380;10.892;2022-11-04T08:56:30;9.40;99.90
33741;DHT22;20065;48.380;10.892;2022-11-04T08:59:18;9.20;99.90
33741;DHT22;20065;48.380;10.892;2022-11-04T09:02:08;9.10;99.90
33741;DHT22;20065;48.380;10.892;2022-11-04T09:04:56;9.00;99.90
33741;DHT22;20065;48.380;10.892;2022-11-04T09:07:43;8.90;99.90
33741;DHT22;20065;48.380;10.892;2022-11-04T09:10:30;8.80;99.90
33741;DHT22;20065;48.380;10.892;2022-11-04T09:13:16;8.90;99.90
33741;DHT22;20065;48.380;10.892;2022-11-04T09:16:04;8.90;99.90
33741;DHT22;20065;48.380;10.892;2022-11-04T09:18:50;8.90;99.90
33741;DHT22;20065;48.380;10.892;2022-11-04T09:21:37;8.90;99.90
33741;DHT22;20065;48.380;10.892;2022-11-04T09:24:25;8.90;99.90
33741;DHT22;20065;48.380;10.892;2022-11-04T09:27:15;9.00;99.90
33741;DHT22;20065;48.380;10.892;2022-11-04T09:30:02;9.00;99.90
33741;DHT22;20065;48.380;10.892;2022-11-04T09:32:54;9.00;99.90
33741;DHT22;20065;48.380;10.892;2022-11-04T09:35:41;8.90;99.90
33741;DHT22;20065;48.380;10.892;2022-11-04T09:38:27;9.20;99.90
33741;DHT22;20065;48.380;10.892;2022-11-04T09:45:31;9.40;99.90
33741;DHT22;20065;48.380;10.892;2022-11-04T09:48:05;9.60;99.90
33741;DHT22;20065;48.380;10.892;2022-11-04T09:50:59;9.60;99.90
33741;DHT22;20065;48.380;10.892;2022-11-04T09:53:50;9.50;99.90
33741;DHT22;20065;48.380;10.892;2022-11-04T09:56:43;9.40;99.90
33741;DHT22;20065;48.380;10.892;2022-11-04T09:59:32;9.40;99.90
33741;DHT22;20065;48.380;10.892;2022-11-04T10:11:45;9.80;99.90
33741;DHT22;20065;48.380;10.892;2022-11-04T10:15:10;9.90;99.90
33741;DHT22;20065;48.380;10.892;2022-11-04T10:23:41;10.00;99.90
33741;DHT22;20065;48.380;10.892;2022-11-04T10:26:38;10.00;99.90
33741;DHT22;20065;48.380;10.892;2022-11-04T10:29:39;10.00;99.90
33741;DHT22;20065;48.380;10.892;2022-11-04T10:35:40;10.10;99.90
33741;DHT22;20065;48.380;10.892;2022-11-04T10:38:46;10.20;99.90
33741;DHT22;20065;48.380;10.892;2022-11-04T10:41:37;10.30;99.90
33741;DHT22;20065;48.380;10.892;2022-11-04T10:44:28;10.30;99.90
33741;DHT22;20065;48.380;10.892;2022-11-04T10:53:20;10.30;99.90
33741;DHT22;20065;48.380;10.892;2022-11-04T10:59:28;10.50;99.90
33741;DHT22;20065;48.380;10.892;2022-11-04T11:02:15;10.50;99.90
33741;DHT22;20065;48.380;10.892;2022-11-04T11:08:03;10.60;99.90
33741;DHT22;20065;48.380;10.892;2022-11-04T11:10:51;10.60;99.90
33741;DHT22;20065;48.380;10.892;2022-11-04T11:13:40;10.70;99.90
33741;DHT22;20065;48.380;10.892;2022-11-04T11:16:27;10.70;99.90
33741;DHT22;20065;48.380;10.892;2022-11-04T11:19:19;10.70;99.90
33741;DHT22;20065;48.380;10.892;2022-11-04T11:22:41;10.80;99.90
33741;DHT22;20065;48.380;10.892;2022-11-04T11:25:33;10.70;99.90
33741;DHT22;20065;48.380;10.892;2022-11-04T11:28:25;10.40;99.90
33741;DHT22;20065;48.380;10.892;2022-11-04T11:31:15;10.50;99.90
33741;DHT22;20065;48.380;10.892;2022-11-04T11:34:23;10.40;99.90
33741;DHT22;20065;48.380;10.892;2022-11-04T11:37:22;10.30;99.90
33741;DHT22;20065;48.380;10.892;2022-11-04T11:40:34;10.20;99.90
33741;DHT22;20065;48.380;10.892;2022-11-04T11:43:28;10.30;99.90
33741;DHT22;20065;48.380;10.892;2022-11-04T11:46:32;10.40;99.90
33741;DHT22;20065;48.380;10.892;2022-11-04T11:49:27;10.50;99.90
33741;DHT22;20065;48.380;10.892;2022-11-04T12:01:31;10.40;99.90
33741;DHT22;20065;48.380;10.892;2022-11-04T12:04:20;10.30;99.90
33741;DHT22;20065;48.380;10.892;2022-11-04T12:15:56;10.50;99.90
33741;DHT22;20065;48.380;10.892;2022-11-04T12:37:29;10.50;99.90
33741;DHT22;20065;48.380;10.892;2022-11-04T12:40:27;10.50;99.90
33741;DHT22;20065;48.380;10.892;2022-11-04T12:52:09;10.40;99.90
33741;DHT22;20065;48.380;10.892;2022-11-04T12:57:51;10.30;99.90
33741;DHT22;20065;48.380;10.892;2022-11-04T13:00:40;10.40;99.90
33741;DHT22;20065;48.380;10.892;2022-11-04T13:03:35;10.60;99.90
33741;DHT22;20065;48.380;10.892;2022-11-04T13:06:30;10.30;99.90
33741;DHT22;20065;48.380;10.892;2022-11-04T13:12:21;10.10;99.90
33741;DHT22;20065;48.380;10.892;2022-11-04T13:15:16;10.10;99.90
33741;DHT22;20065;48.380;10.892;2022-11-04T13:18:04;10.20;99.90
33741;DHT22;20065;48.380;10.892;2022-11-04T13:21:12;10.40;99.90
33741;DHT22;20065;48.380;10.892;2022-11-04T13:24:24;10.40;99.90
33741;DHT22;20065;48.380;10.892;2022-11-04T13:27:18;10.40;99.90
33741;DHT22;20065;48.380;10.892;2022-11-04T13:33:26;10.60;99.90
33741;DHT22;20065;48.380;10.892;2022-11-04T13:39:40;10.90;99.90
33741;DHT22;20065;48.380;10.892;2022-11-04T13:45:48;11.20;99.90
33741;DHT22;20065;48.380;10.892;2022-11-04T13:48:49;11.10;99.90
33741;DHT22;20065;48.380;10.892;2022-11-04T13:51:41;11.20;99.90
33741;DHT22;20065;48.380;10.892;2022-11-04T13:54:32;11.30;99.90
33741;DHT22;20065;48.380;10.892;2022-11-04T13:57:23;11.20;99.90
33741;DHT22;20065;48.380;10.892;2022-11-04T14:06:07;11.10;99.90
33741;DHT22;20065;48.380;10.892;2022-11-04T14:15:09;11.10;99.90
33741;DHT22;20065;48.380;10.892;2022-11-04T14:17:56;11.10;99.90
33741;DHT22;20065;48.380;10.892;2022-11-04T14:21:02;10.80;99.90
33741;DHT22;20065;48.380;10.892;2022-11-04T14:23:56;10.80;99.90
33741;DHT22;20065;48.380;10.892;2022-11-04T14:26:46;10.90;99.90
33741;DHT22;20065;48.380;10.892;2022-11-04T14:29:33;10.90;99.90
33741;DHT22;20065;48.380;10.892;2022-11-04T14:32:24;10.80;99.90
33741;DHT22;20065;48.380;10.892;2022-11-04T14:35:17;10.60;99.90
33741;DHT22;20065;48.380;10.892;2022-11-04T14:38:26;10.50;99.90
33741;DHT22;20065;48.380;10.892;2022-11-04T14:44:27;10.70;99.90
33741;DHT22;20065;48.380;10.892;2022-11-04T14:47:29;10.80;99.90
33741;DHT22;20065;48.380;10.892;2022-11-04T14:50:26;10.90;99.90
33741;DHT22;20065;48.380;10.892;2022-11-04T14:53:29;10.70;99.90
33741;DHT22;20065;48.380;10.892;2022-11-04T14:56:22;10.50;99.90
33741;DHT22;20065;48.380;10.892;2022-11-04T14:59:22;10.50;99.90
33741;DHT22;20065;48.380;10.892;2022-11-04T15:02:22;10.60;99.90
33741;DHT22;20065;48.380;10.892;2022-11-04T15:05:22;10.60;99.90
33741;DHT22;20065;48.380;10.892;2022-11-04T15:11:16;10.80;99.90
33741;DHT22;20065;48.380;10.892;2022-11-04T15:14:22;10.80;99.90
33741;DHT22;20065;48.380;10.892;2022-11-04T15:17:16;10.80;99.90
33741;DHT22;20065;48.380;10.892;2022-11-04T15:20:04;10.70;99.90
33741;DHT22;20065;48.380;10.892;2022-11-04T15:22:53;10.70;99.90
33741;DHT22;20065;48.380;10.892;2022-11-04T15:25:48;10.70;99.90
33741;DHT22;20065;48.380;10.892;2022-11-04T15:28:39;10.70;99.90
33741;DHT22;20065;48.380;10.892;2022-11-04T15:31:55;10.80;99.90
33741;DHT22;20065;48.380;10.892;2022-11-04T15:34:42;10.80;99.90
33741;DHT22;20065;48.380;10.892;2022-11-04T15:37:30;10.70;99.90
33741;DHT22;20065;48.380;10.892;2022-11-04T15:40:17;10.50;99.90
33741;DHT22;20065;48.380;10.892;2022-11-04T15:43:04;10.50;99.90
33741;DHT22;20065;48.380;10.892;2022-11-04T15:45:52;10.50;99.90
33741;DHT22;20065;48.380;10.892;2022-11-04T15:48:38;10.50;99.90
33741;DHT22;20065;48.380;10.892;2022-11-04T15:51:30;10.50;99.90
33741;DHT22;20065;48.380;10.892;2022-11-04T15:54:26;10.60;99.90
33741;DHT22;20065;48.380;10.892;2022-11-04T15:57:24;10.60;99.90
33741;DHT22;20065;48.380;10.892;2022-11-04T16:03:02;10.40;99.90
33741;DHT22;20065;48.380;10.892;2022-11-04T16:06:03;10.20;99.90
33741;DHT22;20065;48.380;10.892;2022-11-04T16:09:15;10.20;99.90
33741;DHT22;20065;48.380;10.892;2022-11-04T16:12:15;10.20;99.90
33741;DHT22;20065;48.380;10.892;2022-11-04T16:15:02;10.20;99.90
33741;DHT22;20065;48.380;10.892;2022-11-04T16:17:48;10.30;99.90
33741;DHT22;20065;48.380;10.892;2022-11-04T16:20:35;10.40;99.90
33741;DHT22;20065;48.380;10.892;2022-11-04T16:23:23;10.40;99.90
33741;DHT22;20065;48.380;10.892;2022-11-04T16:26:10;10.40;99.90
33741;DHT22;20065;48.380;10.892;2022-11-04T16:28:58;10.30;99.90
33741;DHT22;20065;48.380;10.892;2022-11-04T16:31:45;10.30;99.90
33741;DHT22;20065;48.380;10.892;2022-11-04T16:34:31;10.10;99.90
33741;DHT22;20065;48.380;10.892;2022-11-04T16:37:18;10.10;99.90
33741;DHT22;20065;48.380;10.892;2022-11-04T16:40:05;10.00;99.90
33741;DHT22;20065;48.380;10.892;2022-11-04T16:42:52;9.90;99.90
33741;DHT22;20065;48.380;10.892;2022-11-04T16:45:39;9.80;99.90
33741;DHT22;20065;48.380;10.892;2022-11-04T16:48:29;9.80;99.90
33741;DHT22;20065;48.380;10.892;2022-11-04T16:51:17;9.80;99.90
33741;DHT22;20065;48.380;10.892;2022-11-04T16:54:03;9.80;99.90
33741;DHT22;20065;48.380;10.892;2022-11-04T16:56:49;9.70;99.90
33741;DHT22;20065;48.380;10.892;2022-11-04T16:59:36;9.80;99.90
33741;DHT22;20065;48.380;10.892;2022-11-04T17:02:28;9.80;99.90
33741;DHT22;20065;48.380;10.892;2022-11-04T17:05:20;9.80;99.90
33741;DHT22;20065;48.380;10.892;2022-11-04T17:08:08;9.80;99.90
33741;DHT22;20065;48.380;10.892;2022-11-04T17:10:54;9.80;99.90
33741;DHT22;20065;48.380;10.892;2022-11-04T17:13:41;9.70;99.90
33741;DHT22;20065;48.380;10.892;2022-11-04T17:16:27;9.80;99.90
33741;DHT22;20065;48.380;10.892;2022-11-04T17:19:14;9.80;99.90
33741;DHT22;20065;48.380;10.892;2022-11-04T17:22:04;9.90;99.90
33741;DHT22;20065;48.380;10.892;2022-11-04T17:24:51;9.90;99.90
33741;DHT22;20065;48.380;10.892;2022-11-04T17:27:37;9.90;99.90
33741;DHT22;20065;48.380;10.892;2022-11-04T17:30:26;9.80;99.90
33741;DHT22;20065;48.380;10.892;2022-11-04T17:33:17;9.80;99.90
33741;DHT22;20065;48.380;10.892;2022-11-04T17:36:03;9.80;99.90
33741;DHT22;20065;48.380;10.892;2022-11-04T17:38:50;9.60;99.90
33741;DHT22;20065;48.380;10.892;2022-11-04T17:41:36;9.50;99.90
33741;DHT22;20065;48.380;10.892;2022-11-04T17:44:43;9.40;99.90
33741;DHT22;20065;48.380;10.892;2022-11-04T17:47:34;9.30;99.90
33741;DHT22;20065;48.380;10.892;2022-11-04T17:50:21;9.40;99.90
33741;DHT22;20065;48.380;10.892;2022-11-04T17:53:07;9.40;99.90
33741;DHT22;20065;48.380;10.892;2022-11-04T17:55:56;9.40;99.90
33741;DHT22;20065;48.380;10.892;2022-11-04T17:58:45;9.30;99.90
33741;DHT22;20065;48.380;10.892;2022-11-04T18:01:33;9.30;99.90
33741;DHT22;20065;48.380;10.892;2022-11-04T18:04:21;9.30;99.90
33741;DHT22;20065;48.380;10.892;2022-11-04T18:07:07;9.20;99.90
33741;DHT22;20065;48.380;10.892;2022-11-04T18:09:54;9.20;99.90
33741;DHT22;20065;48.380;10.892;2022-11-04T18:12:41;9.20;99.90
33741;DHT22;20065;48.380;10.892;2022-11-04T18:15:27;9.20;99.90
33741;DHT22;20065;48.380;10.892;2022-11-04T18:18:13;9.20;99.90
33741;DHT22;20065;48.380;10.892;2022-11-04T18:21:05;9.10;99.90
33741;DHT22;20065;48.380;10.892;2022-11-04T18:23:54;9.10;99.90
33741;DHT22;20065;48.380;10.892;2022-11-04T18:26:41;9.10;99.90
33741;DHT22;20065;48.380;10.892;2022-11-04T18:29:27;9.00;99.90
33741;DHT22;20065;48.380;10.892;2022-11-04T18:32:13;9.00;99.90
33741;DHT22;20065;48.380;10.892;2022-11-04T18:34:59;8.90;99.90
33741;DHT22;20065;48.380;10.892;2022-11-04T18:37:46;8.80;99.90
33741;DHT22;20065;48.380;10.892;2022-11-04T18:40:32;8.80;99.90
33741;DHT22;20065;48.380;10.892;2022-11-04T18:43:19;8.90;99.90
33741;DHT22;20065;48.380;10.892;2022-11-04T18:46:13;8.90;99.90
33741;DHT22;20065;48.380;10.892;2022-11-04T18:49:00;8.90;99.90
33741;DHT22;20065;48.380;10.892;2022-11-04T18:51:46;8.90;99.90
33741;DHT22;20065;48.380;10.892;2022-11-04T18:54:32;8.90;99.90
33741;DHT22;20065;48.380;10.892;2022-11-04T18:57:18;8.90;99.90
33741;DHT22;20065;48.380;10.892;2022-11-04T19:00:05;9.00;99.90
33741;DHT22;20065;48.380;10.892;2022-11-04T19:02:52;9.00;99.90
33741;DHT22;20065;48.380;10.892;2022-11-04T19:05:40;9.10;99.90
33741;DHT22;20065;48.380;10.892;2022-11-04T19:08:27;9.10;99.90
33741;DHT22;20065;48.380;10.892;2022-11-04T19:11:19;9.10;99.90
33741;DHT22;20065;48.380;10.892;2022-11-04T19:14:11;9.20;99.90
33741;DHT22;20065;48.380;10.892;2022-11-04T19:16:59;9.20;99.90
33741;DHT22;20065;48.380;10.892;2022-11-04T19:19:45;9.30;99.90
33741;DHT22;20065;48.380;10.892;2022-11-04T19:22:33;9.30;99.90
33741;DHT22;20065;48.380;10.892;2022-11-04T19:25:20;9.30;99.90
33741;DHT22;20065;48.380;10.892;2022-11-04T19:28:07;9.40;99.90
33741;DHT22;20065;48.380;10.892;2022-11-04T19:31:01;9.40;99.90
33741;DHT22;20065;48.380;10.892;2022-11-04T19:33:48;9.50;99.90
33741;DHT22;20065;48.380;10.892;2022-11-04T19:36:35;9.20;99.90
33741;DHT22;20065;48.380;10.892;2022-11-04T19:39:22;9.10;99.90
33741;DHT22;20065;48.380;10.892;2022-11-04T19:42:09;8.80;99.90
33741;DHT22;20065;48.380;10.892;2022-11-04T19:45:14;8.70;99.90
33741;DHT22;20065;48.380;10.892;2022-11-04T19:48:00;8.70;99.90
33741;DHT22;20065;48.380;10.892;2022-11-04T19:50:48;8.70;99.90
33741;DHT22;20065;48.380;10.892;2022-11-04T19:53:35;8.70;99.90
33741;DHT22;20065;48.380;10.892;2022-11-04T19:56:24;8.40;99.90
33741;DHT22;20065;48.380;10.892;2022-11-04T19:59:11;8.20;99.90
33741;DHT22;20065;48.380;10.892;2022-11-04T20:01:57;8.20;99.90
33741;DHT22;20065;48.380;10.892;2022-11-04T20:04:44;8.20;99.90
33741;DHT22;20065;48.380;10.892;2022-11-04T20:07:32;8.30;99.90
33741;DHT22;20065;48.380;10.892;2022-11-04T20:10:20;8.50;99.90
33741;DHT22;20065;48.380;10.892;2022-11-04T20:13:14;8.60;99.90
33741;DHT22;20065;48.380;10.892;2022-11-04T20:16:24;8.80;99.90
33741;DHT22;20065;48.380;10.892;2022-11-04T20:19:11;8.80;99.90